sensor_id;sensor_type;location;lat;lon;timestamp;temperature;humidity
66722;SHT31;53633;49.932;10.884;2023-06-05T00:01:09;14.35;55.04
66722;SHT31;53633;49.932;10.884;2023-06-05T00:03:36;14.45;54.28
66722;SHT31;53633;49.932;10.884;2023-06-05T00:06:06;14.28;54.43
66722;SHT31;53633;49.932;10.884;2023-06-05T00:08:32;14.43;54.04
66722;SHT31;53633;49.932;10.884;2023-06-05T00:10:59;14.41;54.19
66722;SHT31;53633;49.932;10.884;2023-06-05T00:13:26;14.21;54.56
66722;SHT31;53633;49.932;10.884;2023-06-05T00:15:54;14.07;55.09
66722;SHT31;53633;49.932;10.884;2023-06-05T00:18:20;14.05;55.06
66722;SHT31;53633;49.932;10.884;2023-06-05T00:20:47;14.05;55.18
66722;SHT31;53633;49.932;10.884;2023-06-05T00:23:14;14.10;54.92
66722;SHT31;53633;49.932;10.884;2023-06-05T00:25:41;13.93;55.33
66722;SHT31;53633;49.932;10.884;2023-06-05T00:28:07;13.55;56.34
66722;SHT31;53633;49.932;10.884;2023-06-05T00:30:34;13.38;56.97
66722;SHT31;53633;49.932;10.884;2023-06-05T00:33:02;13.63;56.56
66722;SHT31;53633;49.932;10.884;2023-06-05T00:35:29;13.59;56.44
66722;SHT31;53633;49.932;10.884;2023-06-05T00:37:56;13.65;56.76
66722;SHT31;53633;49.932;10.884;2023-06-05T00:40:22;13.57;56.85
66722;SHT31;53633;49.932;10.884;2023-06-05T00:42:49;13.45;57.43
66722;SHT31;53633;49.932;10.884;2023-06-05T00:45:16;13.63;57.38
66722;SHT31;53633;49.932;10.884;2023-06-05T00:47:43;13.49;57.34
66722;SHT31;53633;49.932;10.884;2023-06-05T00:50:11;13.43;57.51
66722;SHT31;53633;49.932;10.884;2023-06-05T00:52:38;13.62;56.87
66722;SHT31;53633;49.932;10.884;2023-06-05T00:55:06;13.65;57.27
66722;SHT31;53633;49.932;10.884;2023-06-05T00:57:34;13.59;57.18
66722;SHT31;53633;49.932;10.884;2023-06-05T01:00:00;13.39;57.42
66722;SHT31;53633;49.932;10.884;2023-06-05T01:02:27;13.32;57.99
66722;SHT31;53633;49.932;10.884;2023-06-05T01:04:54;13.39;57.58
66722;SHT31;53633;49.932;10.884;2023-06-05T01:07:22;13.43;57.88
66722;SHT31;53633;49.932;10.884;2023-06-05T01:09:49;13.39;58.26
66722;SHT31;53633;49.932;10.884;2023-06-05T01:12:20;13.26;58.79
66722;SHT31;53633;49.932;10.884;2023-06-05T01:14:48;13.29;59.01
66722;SHT31;53633;49.932;10.884;2023-06-05T01:17:15;13.34;59.03
66722;SHT31;53633;49.932;10.884;2023-06-05T01:19:43;13.36;59.33
66722;SHT31;53633;49.932;10.884;2023-06-05T01:22:10;13.34;58.83
66722;SHT31;53633;49.932;10.884;2023-06-05T01:24:38;13.28;59.64
66722;SHT31;53633;49.932;10.884;2023-06-05T01:27:09;13.07;59.50
66722;SHT31;53633;49.932;10.884;2023-06-05T01:29:41;13.01;60.12
66722;SHT31;53633;49.932;10.884;2023-06-05T01:32:13;13.12;59.63
66722;SHT31;53633;49.932;10.884;2023-06-05T01:34:42;12.90;60.25
66722;SHT31;53633;49.932;10.884;2023-06-05T01:37:10;12.84;60.92
66722;SHT31;53633;49.932;10.884;2023-06-05T01:39:39;13.01;60.45
66722;SHT31;53633;49.932;10.884;2023-06-05T01:42:11;12.94;60.50
66722;SHT31;53633;49.932;10.884;2023-06-05T01:44:39;12.87;60.36
66722;SHT31;53633;49.932;10.884;2023-06-05T01:47:07;12.79;60.93
66722;SHT31;53633;49.932;10.884;2023-06-05T01:49:34;12.56;61.34
66722;SHT31;53633;49.932;10.884;2023-06-05T01:52:01;12.35;61.79
66722;SHT31;53633;49.932;10.884;2023-06-05T01:54:27;12.22;62.84
66722;SHT31;53633;49.932;10.884;2023-06-05T01:56:55;12.14;63.13
66722;SHT31;53633;49.932;10.884;2023-06-05T01:59:22;12.18;62.85
66722;SHT31;53633;49.932;10.884;2023-06-05T02:01:49;11.99;63.17
66722;SHT31;53633;49.932;10.884;2023-06-05T02:04:16;11.88;63.55
66722;SHT31;53633;49.932;10.884;2023-06-05T02:06:42;11.82;63.83
66722;SHT31;53633;49.932;10.884;2023-06-05T02:09:09;11.82;64.36
66722;SHT31;53633;49.932;10.884;2023-06-05T02:11:36;11.75;65.02
66722;SHT31;53633;49.932;10.884;2023-06-05T02:14:05;11.81;65.15
66722;SHT31;53633;49.932;10.884;2023-06-05T02:16:32;11.89;64.93
66722;SHT31;53633;49.932;10.884;2023-06-05T02:18:59;11.87;65.01
66722;SHT31;53633;49.932;10.884;2023-06-05T02:21:25;11.69;66.08
66722;SHT31;53633;49.932;10.884;2023-06-05T02:23:52;11.66;66.46
66722;SHT31;53633;49.932;10.884;2023-06-05T02:26:19;11.77;66.05
66722;SHT31;53633;49.932;10.884;2023-06-05T02:28:46;11.98;65.52
66722;SHT31;53633;49.932;10.884;2023-06-05T02:31:14;12.01;64.99
66722;SHT31;53633;49.932;10.884;2023-06-05T02:33:40;11.99;64.83
66722;SHT31;53633;49.932;10.884;2023-06-05T02:36:07;11.94;64.93
66722;SHT31;53633;49.932;10.884;2023-06-05T02:38:34;11.69;65.00
66722;SHT31;53633;49.932;10.884;2023-06-05T02:41:00;11.44;66.24
66722;SHT31;53633;49.932;10.884;2023-06-05T02:43:27;11.50;66.50
66722;SHT31;53633;49.932;10.884;2023-06-05T02:45:54;11.61;66.38
66722;SHT31;53633;49.932;10.884;2023-06-05T02:48:22;11.43;66.17
66722;SHT31;53633;49.932;10.884;2023-06-05T02:50:49;11.47;66.87
66722;SHT31;53633;49.932;10.884;2023-06-05T02:53:15;11.24;66.88
66722;SHT31;53633;49.932;10.884;2023-06-05T02:55:42;11.27;67.17
66722;SHT31;53633;49.932;10.884;2023-06-05T02:58:09;11.50;66.37
66722;SHT31;53633;49.932;10.884;2023-06-05T03:00:36;11.64;65.92
66722;SHT31;53633;49.932;10.884;2023-06-05T03:03:02;11.74;65.20
66722;SHT31;53633;49.932;10.884;2023-06-05T03:05:31;11.74;65.69
66722;SHT31;53633;49.932;10.884;2023-06-05T03:07:57;11.64;65.86
66722;SHT31;53633;49.932;10.884;2023-06-05T03:10:24;11.59;66.12
66722;SHT31;53633;49.932;10.884;2023-06-05T03:12:50;11.60;66.25
66722;SHT31;53633;49.932;10.884;2023-06-05T03:15:17;11.44;66.69
66722;SHT31;53633;49.932;10.884;2023-06-05T03:17:44;11.60;66.02
66722;SHT31;53633;49.932;10.884;2023-06-05T03:20:12;11.57;65.50
66722;SHT31;53633;49.932;10.884;2023-06-05T03:22:40;11.60;65.87
66722;SHT31;53633;49.932;10.884;2023-06-05T03:25:07;11.43;65.37
66722;SHT31;53633;49.932;10.884;2023-06-05T03:27:34;11.50;66.02
66722;SHT31;53633;49.932;10.884;2023-06-05T03:30:14;11.37;65.90
66722;SHT31;53633;49.932;10.884;2023-06-05T03:32:41;11.40;66.16
66722;SHT31;53633;49.932;10.884;2023-06-05T03:35:08;11.69;64.94
66722;SHT31;53633;49.932;10.884;2023-06-05T03:37:35;11.84;64.30
66722;SHT31;53633;49.932;10.884;2023-06-05T03:40:04;11.75;64.05
66722;SHT31;53633;49.932;10.884;2023-06-05T03:42:30;11.75;64.14
66722;SHT31;53633;49.932;10.884;2023-06-05T03:44:57;12.01;63.27
66722;SHT31;53633;49.932;10.884;2023-06-05T03:47:24;12.14;62.73
66722;SHT31;53633;49.932;10.884;2023-06-05T03:49:51;12.15;62.95
66722;SHT31;53633;49.932;10.884;2023-06-05T03:52:18;12.26;62.59
66722;SHT31;53633;49.932;10.884;2023-06-05T03:54:44;12.32;62.70
66722;SHT31;53633;49.932;10.884;2023-06-05T03:57:13;12.45;62.72
66722;SHT31;53633;49.932;10.884;2023-06-05T03:59:40;12.49;62.61
66722;SHT31;53633;49.932;10.884;2023-06-05T04:02:07;12.60;62.89
66722;SHT31;53633;49.932;10.884;2023-06-05T04:04:34;12.57;62.91
66722;SHT31;53633;49.932;10.884;2023-06-05T04:07:01;12.68;62.77
66722;SHT31;53633;49.932;10.884;2023-06-05T04:09:27;12.79;62.41
66722;SHT31;53633;49.932;10.884;2023-06-05T04:11:54;13.43;60.84
66722;SHT31;53633;49.932;10.884;2023-06-05T04:14:22;14.05;58.85
66722;SHT31;53633;49.932;10.884;2023-06-05T04:16:49;14.24;57.86
66722;SHT31;53633;49.932;10.884;2023-06-05T04:19:16;14.18;58.19
66722;SHT31;53633;49.932;10.884;2023-06-05T04:21:43;14.20;57.88
66722;SHT31;53633;49.932;10.884;2023-06-05T04:24:09;14.43;57.42
66722;SHT31;53633;49.932;10.884;2023-06-05T04:26:37;14.65;56.84
66722;SHT31;53633;49.932;10.884;2023-06-05T04:29:04;14.87;55.81
66722;SHT31;53633;49.932;10.884;2023-06-05T04:31:32;14.98;55.21
66722;SHT31;53633;49.932;10.884;2023-06-05T04:33:59;15.06;55.04
66722;SHT31;53633;49.932;10.884;2023-06-05T04:36:27;15.01;54.96
66722;SHT31;53633;49.932;10.884;2023-06-05T04:38:54;14.94;55.51
66722;SHT31;53633;49.932;10.884;2023-06-05T04:41:20;14.72;55.53
66722;SHT31;53633;49.932;10.884;2023-06-05T04:43:47;14.72;54.76
66722;SHT31;53633;49.932;10.884;2023-06-05T04:46:14;15.11;54.39
66722;SHT31;53633;49.932;10.884;2023-06-05T04:48:42;15.24;54.34
66722;SHT31;53633;49.932;10.884;2023-06-05T04:51:09;15.41;53.34
66722;SHT31;53633;49.932;10.884;2023-06-05T04:53:36;15.66;53.15
66722;SHT31;53633;49.932;10.884;2023-06-05T04:56:05;15.93;52.50
66722;SHT31;53633;49.932;10.884;2023-06-05T04:58:32;16.31;51.44
66722;SHT31;53633;49.932;10.884;2023-06-05T05:00:59;16.55;51.06
66722;SHT31;53633;49.932;10.884;2023-06-05T05:03:25;16.49;49.99
66722;SHT31;53633;49.932;10.884;2023-06-05T05:05:53;16.54;50.57
66722;SHT31;53633;49.932;10.884;2023-06-05T05:08:20;16.32;50.78
66722;SHT31;53633;49.932;10.884;2023-06-05T05:10:47;16.37;50.63
66722;SHT31;53633;49.932;10.884;2023-06-05T05:13:14;16.73;50.10
66722;SHT31;53633;49.932;10.884;2023-06-05T05:15:40;17.26;49.25
66722;SHT31;53633;49.932;10.884;2023-06-05T05:18:07;17.52;48.67
66722;SHT31;53633;49.932;10.884;2023-06-05T05:20:37;17.79;47.91
66722;SHT31;53633;49.932;10.884;2023-06-05T05:23:07;17.75;48.09
66722;SHT31;53633;49.932;10.884;2023-06-05T05:25:34;17.78;47.53
66722;SHT31;53633;49.932;10.884;2023-06-05T05:28:00;18.30;46.57
66722;SHT31;53633;49.932;10.884;2023-06-05T05:30:27;18.75;45.82
66722;SHT31;53633;49.932;10.884;2023-06-05T05:32:54;19.15;44.71
66722;SHT31;53633;49.932;10.884;2023-06-05T05:35:20;19.98;43.53
66722;SHT31;53633;49.932;10.884;2023-06-05T05:37:47;20.13;43.23
66722;SHT31;53633;49.932;10.884;2023-06-05T05:40:15;20.90;41.65
66722;SHT31;53633;49.932;10.884;2023-06-05T05:42:42;21.24;40.98
66722;SHT31;53633;49.932;10.884;2023-06-05T05:45:09;21.64;40.28
66722;SHT31;53633;49.932;10.884;2023-06-05T05:47:35;22.10;38.79
66722;SHT31;53633;49.932;10.884;2023-06-05T05:50:04;22.25;38.59
66722;SHT31;53633;49.932;10.884;2023-06-05T05:52:31;22.92;37.69
66722;SHT31;53633;49.932;10.884;2023-06-05T05:54:58;22.70;37.59
66722;SHT31;53633;49.932;10.884;2023-06-05T05:57:26;23.04;37.65
66722;SHT31;53633;49.932;10.884;2023-06-05T05:59:53;23.20;37.38
66722;SHT31;53633;49.932;10.884;2023-06-05T06:02:19;24.09;36.08
66722;SHT31;53633;49.932;10.884;2023-06-05T06:04:46;24.69;35.39
66722;SHT31;53633;49.932;10.884;2023-06-05T06:07:13;25.48;35.02
66722;SHT31;53633;49.932;10.884;2023-06-05T06:09:40;25.63;33.47
66722;SHT31;53633;49.932;10.884;2023-06-05T06:12:06;26.12;33.97
66722;SHT31;53633;49.932;10.884;2023-06-05T06:14:34;26.40;33.45
66722;SHT31;53633;49.932;10.884;2023-06-05T06:17:01;26.94;32.46
66722;SHT31;53633;49.932;10.884;2023-06-05T06:19:28;27.35;31.67
66722;SHT31;53633;49.932;10.884;2023-06-05T06:21:55;26.96;31.73
66722;SHT31;53633;49.932;10.884;2023-06-05T06:24:22;27.08;31.41
66722;SHT31;53633;49.932;10.884;2023-06-05T06:26:49;27.31;32.09
66722;SHT31;53633;49.932;10.884;2023-06-05T06:29:18;28.17;30.85
66722;SHT31;53633;49.932;10.884;2023-06-05T06:31:46;27.77;31.55
66722;SHT31;53633;49.932;10.884;2023-06-05T06:34:13;27.73;31.60
66722;SHT31;53633;49.932;10.884;2023-06-05T06:36:39;27.63;31.03
66722;SHT31;53633;49.932;10.884;2023-06-05T06:39:06;27.36;31.33
66722;SHT31;53633;49.932;10.884;2023-06-05T06:41:33;27.18;31.75
66722;SHT31;53633;49.932;10.884;2023-06-05T06:44:00;27.28;32.56
66722;SHT31;53633;49.932;10.884;2023-06-05T06:46:32;27.04;32.02
66722;SHT31;53633;49.932;10.884;2023-06-05T06:49:00;26.76;32.88
66722;SHT31;53633;49.932;10.884;2023-06-05T06:51:27;26.78;33.78
66722;SHT31;53633;49.932;10.884;2023-06-05T06:53:54;26.12;34.05
66722;SHT31;53633;49.932;10.884;2023-06-05T06:56:20;26.44;33.81
66722;SHT31;53633;49.932;10.884;2023-06-05T06:58:48;26.01;34.21
66722;SHT31;53633;49.932;10.884;2023-06-05T07:01:15;25.44;34.92
66722;SHT31;53633;49.932;10.884;2023-06-05T07:03:42;25.47;34.47
66722;SHT31;53633;49.932;10.884;2023-06-05T07:06:10;25.09;35.93
66722;SHT31;53633;49.932;10.884;2023-06-05T07:08:37;25.17;35.78
66722;SHT31;53633;49.932;10.884;2023-06-05T07:11:04;25.67;35.27
66722;SHT31;53633;49.932;10.884;2023-06-05T07:13:30;25.93;35.22
66722;SHT31;53633;49.932;10.884;2023-06-05T07:15:57;26.05;34.46
66722;SHT31;53633;49.932;10.884;2023-06-05T07:18:24;26.13;35.71
66722;SHT31;53633;49.932;10.884;2023-06-05T07:20:51;25.81;34.81
66722;SHT31;53633;49.932;10.884;2023-06-05T07:23:19;25.98;34.93
66722;SHT31;53633;49.932;10.884;2023-06-05T07:25:47;25.89;35.37
66722;SHT31;53633;49.932;10.884;2023-06-05T07:28:14;25.86;35.60
66722;SHT31;53633;49.932;10.884;2023-06-05T07:30:41;26.01;35.31
66722;SHT31;53633;49.932;10.884;2023-06-05T07:33:07;26.20;34.64
66722;SHT31;53633;49.932;10.884;2023-06-05T07:35:44;26.32;35.32
66722;SHT31;53633;49.932;10.884;2023-06-05T07:38:10;26.61;35.30
66722;SHT31;53633;49.932;10.884;2023-06-05T07:40:38;26.47;34.46
66722;SHT31;53633;49.932;10.884;2023-06-05T07:43:05;26.36;34.78
66722;SHT31;53633;49.932;10.884;2023-06-05T07:45:32;26.44;35.34
66722;SHT31;53633;49.932;10.884;2023-06-05T07:48:00;26.36;35.55
66722;SHT31;53633;49.932;10.884;2023-06-05T07:50:26;26.35;35.10
66722;SHT31;53633;49.932;10.884;2023-06-05T07:52:53;26.64;35.10
66722;SHT31;53633;49.932;10.884;2023-06-05T07:55:21;26.94;34.83
66722;SHT31;53633;49.932;10.884;2023-06-05T07:57:49;27.16;35.58
66722;SHT31;53633;49.932;10.884;2023-06-05T08:00:17;27.46;34.39
66722;SHT31;53633;49.932;10.884;2023-06-05T08:02:44;27.84;34.24
66722;SHT31;53633;49.932;10.884;2023-06-05T08:05:11;27.94;34.12
66722;SHT31;53633;49.932;10.884;2023-06-05T08:07:38;28.22;34.02
66722;SHT31;53633;49.932;10.884;2023-06-05T08:10:07;28.28;33.77
66722;SHT31;53633;49.932;10.884;2023-06-05T08:12:34;28.46;33.16
66722;SHT31;53633;49.932;10.884;2023-06-05T08:15:03;28.83;33.60
66722;SHT31;53633;49.932;10.884;2023-06-05T08:17:31;28.67;31.90
66722;SHT31;53633;49.932;10.884;2023-06-05T08:19:58;28.70;30.55
66722;SHT31;53633;49.932;10.884;2023-06-05T08:22:25;28.36;31.00
66722;SHT31;53633;49.932;10.884;2023-06-05T08:24:51;28.15;31.42
66722;SHT31;53633;49.932;10.884;2023-06-05T08:27:18;28.72;30.41
66722;SHT31;53633;49.932;10.884;2023-06-05T08:29:45;28.91;30.23
66722;SHT31;53633;49.932;10.884;2023-06-05T08:32:13;28.73;30.47
66722;SHT31;53633;49.932;10.884;2023-06-05T08:34:40;28.57;31.33
66722;SHT31;53633;49.932;10.884;2023-06-05T08:37:07;28.45;31.82
66722;SHT31;53633;49.932;10.884;2023-06-05T08:39:34;28.69;32.55
66722;SHT31;53633;49.932;10.884;2023-06-05T08:42:01;28.64;32.44
66722;SHT31;53633;49.932;10.884;2023-06-05T08:44:27;28.42;32.56
66722;SHT31;53633;49.932;10.884;2023-06-05T08:46:59;28.45;32.44
66722;SHT31;53633;49.932;10.884;2023-06-05T08:49:29;28.79;32.36
66722;SHT31;53633;49.932;10.884;2023-06-05T08:51:59;28.69;32.67
66722;SHT31;53633;49.932;10.884;2023-06-05T08:54:27;28.94;33.55
66722;SHT31;53633;49.932;10.884;2023-06-05T08:56:54;28.49;33.19
66722;SHT31;53633;49.932;10.884;2023-06-05T08:59:21;29.20;31.79
66722;SHT31;53633;49.932;10.884;2023-06-05T09:01:47;29.58;31.57
66722;SHT31;53633;49.932;10.884;2023-06-05T09:04:14;29.65;30.49
66722;SHT31;53633;49.932;10.884;2023-06-05T09:06:46;29.90;31.96
66722;SHT31;53633;49.932;10.884;2023-06-05T09:09:14;29.82;31.28
66722;SHT31;53633;49.932;10.884;2023-06-05T09:11:41;29.67;31.95
66722;SHT31;53633;49.932;10.884;2023-06-05T09:14:07;29.51;31.70
66722;SHT31;53633;49.932;10.884;2023-06-05T09:16:36;29.63;32.39
66722;SHT31;53633;49.932;10.884;2023-06-05T09:19:03;29.55;31.52
66722;SHT31;53633;49.932;10.884;2023-06-05T09:21:31;29.27;31.96
66722;SHT31;53633;49.932;10.884;2023-06-05T09:24:12;29.22;31.48
66722;SHT31;53633;49.932;10.884;2023-06-05T09:26:59;29.22;31.93
66722;SHT31;53633;49.932;10.884;2023-06-05T09:29:27;29.48;32.04
66722;SHT31;53633;49.932;10.884;2023-06-05T09:31:56;29.32;31.32
66722;SHT31;53633;49.932;10.884;2023-06-05T09:34:28;29.06;31.48
66722;SHT31;53633;49.932;10.884;2023-06-05T09:36:56;29.04;32.46
66722;SHT31;53633;49.932;10.884;2023-06-05T09:39:25;29.47;31.80
66722;SHT31;53633;49.932;10.884;2023-06-05T09:41:53;29.62;31.37
66722;SHT31;53633;49.932;10.884;2023-06-05T09:44:20;28.80;31.93
66722;SHT31;53633;49.932;10.884;2023-06-05T09:46:51;28.93;32.04
66722;SHT31;53633;49.932;10.884;2023-06-05T09:49:19;29.21;31.30
66722;SHT31;53633;49.932;10.884;2023-06-05T09:51:46;28.97;32.53
66722;SHT31;53633;49.932;10.884;2023-06-05T09:54:13;29.06;32.60
66722;SHT31;53633;49.932;10.884;2023-06-05T09:56:46;28.84;32.31
66722;SHT31;53633;49.932;10.884;2023-06-05T09:59:13;28.96;32.57
66722;SHT31;53633;49.932;10.884;2023-06-05T10:01:42;29.49;31.23
66722;SHT31;53633;49.932;10.884;2023-06-05T10:04:10;29.39;32.32
66722;SHT31;53633;49.932;10.884;2023-06-05T10:06:38;29.41;32.96
66722;SHT31;53633;49.932;10.884;2023-06-05T10:09:06;29.55;32.71
66722;SHT31;53633;49.932;10.884;2023-06-05T10:11:33;29.07;33.41
66722;SHT31;53633;49.932;10.884;2023-06-05T10:14:02;29.17;32.91
66722;SHT31;53633;49.932;10.884;2023-06-05T10:16:29;28.76;34.57
66722;SHT31;53633;49.932;10.884;2023-06-05T10:18:57;27.83;34.93
66722;SHT31;53633;49.932;10.884;2023-06-05T10:21:25;28.04;35.66
66722;SHT31;53633;49.932;10.884;2023-06-05T10:24:02;28.01;35.06
66722;SHT31;53633;49.932;10.884;2023-06-05T10:26:44;27.93;36.09
66722;SHT31;53633;49.932;10.884;2023-06-05T10:29:24;27.77;35.18
66722;SHT31;53633;49.932;10.884;2023-06-05T10:31:59;27.74;36.75
66722;SHT31;53633;49.932;10.884;2023-06-05T10:34:35;27.42;36.23
66722;SHT31;53633;49.932;10.884;2023-06-05T10:37:30;27.18;36.73
66722;SHT31;53633;49.932;10.884;2023-06-05T10:40:00;27.16;37.30
66722;SHT31;53633;49.932;10.884;2023-06-05T10:42:28;26.84;37.94
66722;SHT31;53633;49.932;10.884;2023-06-05T10:44:57;26.47;38.61
66722;SHT31;53633;49.932;10.884;2023-06-05T10:47:48;26.30;39.10
66722;SHT31;53633;49.932;10.884;2023-06-05T10:50:36;26.36;37.74
66722;SHT31;53633;49.932;10.884;2023-06-05T10:53:04;26.19;38.01
66722;SHT31;53633;49.932;10.884;2023-06-05T10:55:41;25.88;38.85
66722;SHT31;53633;49.932;10.884;2023-06-05T10:58:10;25.74;39.18
66722;SHT31;53633;49.932;10.884;2023-06-05T11:01:17;25.99;39.20
66722;SHT31;53633;49.932;10.884;2023-06-05T11:03:54;26.35;39.98
66722;SHT31;53633;49.932;10.884;2023-06-05T11:06:21;26.57;39.56
66722;SHT31;53633;49.932;10.884;2023-06-05T11:09:10;26.73;39.43
66722;SHT31;53633;49.932;10.884;2023-06-05T11:11:57;25.93;39.82
66722;SHT31;53633;49.932;10.884;2023-06-05T11:14:24;25.33;40.90
66722;SHT31;53633;49.932;10.884;2023-06-05T11:16:53;25.19;41.42
66722;SHT31;53633;49.932;10.884;2023-06-05T11:19:35;25.06;41.68
66722;SHT31;53633;49.932;10.884;2023-06-05T11:22:05;25.34;41.01
66722;SHT31;53633;49.932;10.884;2023-06-05T11:24:32;25.64;40.22
66722;SHT31;53633;49.932;10.884;2023-06-05T11:27:00;26.15;41.42
66722;SHT31;53633;49.932;10.884;2023-06-05T11:29:27;26.19;40.24
66722;SHT31;53633;49.932;10.884;2023-06-05T11:31:55;26.44;40.31
66722;SHT31;53633;49.932;10.884;2023-06-05T11:34:22;26.50;39.87
66722;SHT31;53633;49.932;10.884;2023-06-05T11:36:49;26.63;41.31
66722;SHT31;53633;49.932;10.884;2023-06-05T11:39:16;26.78;40.90
66722;SHT31;53633;49.932;10.884;2023-06-05T11:41:43;27.09;39.92
66722;SHT31;53633;49.932;10.884;2023-06-05T11:44:10;26.53;39.48
66722;SHT31;53633;49.932;10.884;2023-06-05T11:46:37;26.46;40.17
66722;SHT31;53633;49.932;10.884;2023-06-05T11:49:06;26.63;38.90
66722;SHT31;53633;49.932;10.884;2023-06-05T11:51:33;26.22;40.16
66722;SHT31;53633;49.932;10.884;2023-06-05T11:54:00;25.81;41.14
66722;SHT31;53633;49.932;10.884;2023-06-05T11:56:27;25.82;41.63
66722;SHT31;53633;49.932;10.884;2023-06-05T11:58:54;25.89;41.79
66722;SHT31;53633;49.932;10.884;2023-06-05T12:01:21;26.05;41.62
66722;SHT31;53633;49.932;10.884;2023-06-05T12:03:48;26.20;41.26
66722;SHT31;53633;49.932;10.884;2023-06-05T12:06:17;26.26;40.64
66722;SHT31;53633;49.932;10.884;2023-06-05T12:08:44;26.35;42.83
66722;SHT31;53633;49.932;10.884;2023-06-05T12:11:25;26.01;42.14
66722;SHT31;53633;49.932;10.884;2023-06-05T12:13:53;25.63;41.48
66722;SHT31;53633;49.932;10.884;2023-06-05T12:16:35;25.24;41.86
66722;SHT31;53633;49.932;10.884;2023-06-05T12:19:10;25.26;42.67
66722;SHT31;53633;49.932;10.884;2023-06-05T12:21:43;24.99;44.06
66722;SHT31;53633;49.932;10.884;2023-06-05T12:24:10;24.82;44.33
66722;SHT31;53633;49.932;10.884;2023-06-05T12:26:51;24.88;44.46
66722;SHT31;53633;49.932;10.884;2023-06-05T12:29:18;24.76;43.77
66722;SHT31;53633;49.932;10.884;2023-06-05T12:31:45;24.71;44.13
66722;SHT31;53633;49.932;10.884;2023-06-05T12:34:12;24.68;42.91
66722;SHT31;53633;49.932;10.884;2023-06-05T12:36:39;24.93;43.42
66722;SHT31;53633;49.932;10.884;2023-06-05T12:39:09;25.05;43.86
66722;SHT31;53633;49.932;10.884;2023-06-05T12:41:36;25.12;44.71
66722;SHT31;53633;49.932;10.884;2023-06-05T12:44:04;25.16;45.77
66722;SHT31;53633;49.932;10.884;2023-06-05T12:46:31;25.20;43.92
66722;SHT31;53633;49.932;10.884;2023-06-05T12:48:58;25.36;43.47
66722;SHT31;53633;49.932;10.884;2023-06-05T12:51:25;25.53;43.75
66722;SHT31;53633;49.932;10.884;2023-06-05T12:53:52;25.44;42.10
66722;SHT31;53633;49.932;10.884;2023-06-05T12:56:20;25.44;42.99
66722;SHT31;53633;49.932;10.884;2023-06-05T12:58:47;25.53;43.27
66722;SHT31;53633;49.932;10.884;2023-06-05T13:01:14;25.57;43.40
66722;SHT31;53633;49.932;10.884;2023-06-05T13:03:41;25.64;43.27
66722;SHT31;53633;49.932;10.884;2023-06-05T13:06:08;25.60;43.95
66722;SHT31;53633;49.932;10.884;2023-06-05T13:08:35;25.88;43.10
66722;SHT31;53633;49.932;10.884;2023-06-05T13:11:02;25.82;42.15
66722;SHT31;53633;49.932;10.884;2023-06-05T13:13:31;25.73;42.24
66722;SHT31;53633;49.932;10.884;2023-06-05T13:15:58;25.70;41.12
66722;SHT31;53633;49.932;10.884;2023-06-05T13:18:24;25.86;42.56
66722;SHT31;53633;49.932;10.884;2023-06-05T13:20:51;26.08;43.33
66722;SHT31;53633;49.932;10.884;2023-06-05T13:23:18;25.98;44.10
66722;SHT31;53633;49.932;10.884;2023-06-05T13:25:45;25.61;42.88
66722;SHT31;53633;49.932;10.884;2023-06-05T13:28:11;25.43;43.10
66722;SHT31;53633;49.932;10.884;2023-06-05T13:30:40;25.22;42.94
66722;SHT31;53633;49.932;10.884;2023-06-05T13:33:06;25.19;44.40
66722;SHT31;53633;49.932;10.884;2023-06-05T13:35:33;25.22;44.04
66722;SHT31;53633;49.932;10.884;2023-06-05T13:38:00;25.08;43.87
66722;SHT31;53633;49.932;10.884;2023-06-05T13:40:27;25.05;43.35
66722;SHT31;53633;49.932;10.884;2023-06-05T13:42:53;25.22;43.77
66722;SHT31;53633;49.932;10.884;2023-06-05T13:45:20;25.38;43.83
66722;SHT31;53633;49.932;10.884;2023-06-05T13:47:49;25.53;43.20
66722;SHT31;53633;49.932;10.884;2023-06-05T13:50:15;25.54;42.32
66722;SHT31;53633;49.932;10.884;2023-06-05T13:52:42;25.33;42.35
66722;SHT31;53633;49.932;10.884;2023-06-05T13:55:09;25.30;42.79
66722;SHT31;53633;49.932;10.884;2023-06-05T13:57:36;25.13;42.86
66722;SHT31;53633;49.932;10.884;2023-06-05T14:00:03;25.28;42.76
66722;SHT31;53633;49.932;10.884;2023-06-05T14:02:30;25.36;42.82
66722;SHT31;53633;49.932;10.884;2023-06-05T14:04:58;25.40;42.66
66722;SHT31;53633;49.932;10.884;2023-06-05T14:07:25;25.50;43.06
66722;SHT31;53633;49.932;10.884;2023-06-05T14:10:07;25.50;43.39
66722;SHT31;53633;49.932;10.884;2023-06-05T14:12:34;25.55;43.45
66722;SHT31;53633;49.932;10.884;2023-06-05T14:15:01;25.70;42.86
66722;SHT31;53633;49.932;10.884;2023-06-05T14:17:27;25.47;42.70
66722;SHT31;53633;49.932;10.884;2023-06-05T14:19:54;25.37;42.90
66722;SHT31;53633;49.932;10.884;2023-06-05T14:22:22;25.43;43.65
66722;SHT31;53633;49.932;10.884;2023-06-05T14:24:49;25.41;43.71
66722;SHT31;53633;49.932;10.884;2023-06-05T14:27:15;25.40;44.42
66722;SHT31;53633;49.932;10.884;2023-06-05T14:29:42;25.37;43.32
66722;SHT31;53633;49.932;10.884;2023-06-05T14:32:09;25.48;42.64
66722;SHT31;53633;49.932;10.884;2023-06-05T14:34:36;25.41;42.11
66722;SHT31;53633;49.932;10.884;2023-06-05T14:37:03;25.44;43.31
66722;SHT31;53633;49.932;10.884;2023-06-05T14:39:31;25.70;43.48
66722;SHT31;53633;49.932;10.884;2023-06-05T14:41:58;25.40;42.41
66722;SHT31;53633;49.932;10.884;2023-06-05T14:44:24;25.44;42.92
66722;SHT31;53633;49.932;10.884;2023-06-05T14:46:53;25.34;42.57
66722;SHT31;53633;49.932;10.884;2023-06-05T14:49:20;25.36;42.92
66722;SHT31;53633;49.932;10.884;2023-06-05T14:51:47;25.28;42.56
66722;SHT31;53633;49.932;10.884;2023-06-05T14:54:14;25.10;43.45
66722;SHT31;53633;49.932;10.884;2023-06-05T14:56:42;25.00;43.36
66722;SHT31;53633;49.932;10.884;2023-06-05T14:59:09;24.99;43.83
66722;SHT31;53633;49.932;10.884;2023-06-05T15:01:51;24.75;43.52
66722;SHT31;53633;49.932;10.884;2023-06-05T15:04:18;24.61;43.75
66722;SHT31;53633;49.932;10.884;2023-06-05T15:06:45;24.73;43.75
66722;SHT31;53633;49.932;10.884;2023-06-05T15:09:12;24.83;43.65
66722;SHT31;53633;49.932;10.884;2023-06-05T15:11:38;24.93;43.31
66722;SHT31;53633;49.932;10.884;2023-06-05T15:14:06;24.90;42.37
66722;SHT31;53633;49.932;10.884;2023-06-05T15:16:33;24.95;42.46
66722;SHT31;53633;49.932;10.884;2023-06-05T15:19:08;24.96;41.64
66722;SHT31;53633;49.932;10.884;2023-06-05T15:21:35;25.00;42.84